sensor_id;sensor_type;location;lat;lon;timestamp;P1;durP1;ratioP1;P2;durP2;ratioP2
7669;SDS011;3877;42.562;27.636;2023-04-19T00:00:55;17.20;;;11.23;;
7669;SDS011;3877;42.562;27.636;2023-04-19T00:03:23;22.50;;;10.33;;
7669;SDS011;3877;42.562;27.636;2023-04-19T00:05:50;23.10;;;10.70;;
7669;SDS011;3877;42.562;27.636;2023-04-19T00:08:20;26.33;;;10.90;;
7669;SDS011;3877;42.562;27.636;2023-04-19T00:10:47;17.73;;;10.70;;
7669;SDS011;3877;42.562;27.636;2023-04-19T00:13:13;20.57;;;11.80;;
7669;SDS011;3877;42.562;27.636;2023-04-19T00:15:40;20.07;;;11.80;;
7669;SDS011;3877;42.562;27.636;2023-04-19T00:18:07;23.00;;;13.20;;
7669;SDS011;3877;42.562;27.636;2023-04-19T00:20:34;22.37;;;12.73;;
7669;SDS011;3877;42.562;27.636;2023-04-19T00:23:00;20.40;;;13.50;;
7669;SDS011;3877;42.562;27.636;2023-04-19T00:25:29;23.13;;;13.30;;
7669;SDS011;3877;42.562;27.636;2023-04-19T00:27:58;25.57;;;14.33;;
7669;SDS011;3877;42.562;27.636;2023-04-19T00:30:25;21.67;;;14.57;;
7669;SDS011;3877;42.562;27.636;2023-04-19T00:32:52;27.43;;;16.07;;
7669;SDS011;3877;42.562;27.636;2023-04-19T00:35:19;21.00;;;15.83;;
7669;SDS011;3877;42.562;27.636;2023-04-19T00:37:46;24.43;;;15.03;;
7669;SDS011;3877;42.562;27.636;2023-04-19T00:40:13;21.70;;;15.90;;
7669;SDS011;3877;42.562;27.636;2023-04-19T00:42:41;26.37;;;16.87;;
7669;SDS011;3877;42.562;27.636;2023-04-19T00:45:08;24.73;;;15.40;;
7669;SDS011;3877;42.562;27.636;2023-04-19T00:47:35;26.70;;;15.90;;
7669;SDS011;3877;42.562;27.636;2023-04-19T00:50:02;22.57;;;16.00;;
7669;SDS011;3877;42.562;27.636;2023-04-19T00:52:30;24.73;;;15.80;;
7669;SDS011;3877;42.562;27.636;2023-04-19T00:54:58;27.17;;;15.10;;
7669;SDS011;3877;42.562;27.636;2023-04-19T00:57:25;25.37;;;15.00;;
7669;SDS011;3877;42.562;27.636;2023-04-19T00:59:53;24.40;;;14.90;;
7669;SDS011;3877;42.562;27.636;2023-04-19T01:02:21;28.03;;;16.50;;
7669;SDS011;3877;42.562;27.636;2023-04-19T01:04:47;25.80;;;15.93;;
7669;SDS011;3877;42.562;27.636;2023-04-19T01:07:14;27.10;;;15.50;;
7669;SDS011;3877;42.562;27.636;2023-04-19T01:09:42;26.50;;;16.30;;
7669;SDS011;3877;42.562;27.636;2023-04-19T01:12:08;22.63;;;14.63;;
7669;SDS011;3877;42.562;27.636;2023-04-19T01:14:35;25.37;;;16.20;;
7669;SDS011;3877;42.562;27.636;2023-04-19T01:17:03;21.60;;;15.03;;
7669;SDS011;3877;42.562;27.636;2023-04-19T01:19:30;27.37;;;15.73;;
7669;SDS011;3877;42.562;27.636;2023-04-19T01:21:59;26.33;;;15.83;;
7669;SDS011;3877;42.562;27.636;2023-04-19T01:24:28;25.03;;;14.80;;
7669;SDS011;3877;42.562;27.636;2023-04-19T01:26:56;24.07;;;14.50;;
7669;SDS011;3877;42.562;27.636;2023-04-19T01:29:22;27.13;;;15.00;;
7669;SDS011;3877;42.562;27.636;2023-04-19T01:31:49;25.40;;;15.80;;
7669;SDS011;3877;42.562;27.636;2023-04-19T01:34:17;23.90;;;16.03;;
7669;SDS011;3877;42.562;27.636;2023-04-19T01:36:44;23.23;;;15.23;;
7669;SDS011;3877;42.562;27.636;2023-04-19T01:39:11;24.17;;;15.60;;
7669;SDS011;3877;42.562;27.636;2023-04-19T01:41:39;28.07;;;16.10;;
7669;SDS011;3877;42.562;27.636;2023-04-19T01:44:06;28.33;;;15.17;;
7669;SDS011;3877;42.562;27.636;2023-04-19T01:46:33;22.87;;;15.33;;
7669;SDS011;3877;42.562;27.636;2023-04-19T01:49:00;24.60;;;15.00;;
7669;SDS011;3877;42.562;27.636;2023-04-19T01:51:27;25.47;;;15.40;;
7669;SDS011;3877;42.562;27.636;2023-04-19T01:53:54;24.13;;;14.93;;
7669;SDS011;3877;42.562;27.636;2023-04-19T01:56:22;24.67;;;13.90;;
7669;SDS011;3877;42.562;27.636;2023-04-19T01:58:50;23.30;;;13.87;;
7669;SDS011;3877;42.562;27.636;2023-04-19T02:01:17;23.57;;;14.83;;
7669;SDS011;3877;42.562;27.636;2023-04-19T02:03:44;25.30;;;15.07;;
7669;SDS011;3877;42.562;27.636;2023-04-19T02:06:11;20.63;;;14.53;;
7669;SDS011;3877;42.562;27.636;2023-04-19T02:08:38;25.23;;;14.00;;
7669;SDS011;3877;42.562;27.636;2023-04-19T02:11:05;25.07;;;14.77;;
7669;SDS011;3877;42.562;27.636;2023-04-19T02:13:33;21.20;;;14.27;;
7669;SDS011;3877;42.562;27.636;2023-04-19T02:16:01;20.03;;;13.73;;
7669;SDS011;3877;42.562;27.636;2023-04-19T02:18:28;23.93;;;14.33;;
7669;SDS011;3877;42.562;27.636;2023-04-19T02:20:55;21.47;;;13.70;;
7669;SDS011;3877;42.562;27.636;2023-04-19T02:23:22;24.10;;;12.73;;
7669;SDS011;3877;42.562;27.636;2023-04-19T02:25:49;18.37;;;12.90;;
7669;SDS011;3877;42.562;27.636;2023-04-19T02:28:16;22.23;;;13.37;;
7669;SDS011;3877;42.562;27.636;2023-04-19T02:30:43;23.87;;;14.23;;
7669;SDS011;3877;42.562;27.636;2023-04-19T02:33:11;19.33;;;12.47;;
7669;SDS011;3877;42.562;27.636;2023-04-19T02:35:38;19.00;;;12.67;;
7669;SDS011;3877;42.562;27.636;2023-04-19T02:38:05;19.00;;;12.60;;
7669;SDS011;3877;42.562;27.636;2023-04-19T02:40:32;18.80;;;12.97;;
7669;SDS011;3877;42.562;27.636;2023-04-19T02:42:58;17.33;;;12.63;;
7669;SDS011;3877;42.562;27.636;2023-04-19T02:45:25;15.50;;;12.37;;
7669;SDS011;3877;42.562;27.636;2023-04-19T02:47:52;20.27;;;13.40;;
7669;SDS011;3877;42.562;27.636;2023-04-19T02:50:20;17.97;;;12.10;;
7669;SDS011;3877;42.562;27.636;2023-04-19T02:52:47;21.33;;;12.67;;
7669;SDS011;3877;42.562;27.636;2023-04-19T02:55:14;22.50;;;13.10;;
7669;SDS011;3877;42.562;27.636;2023-04-19T02:57:41;20.83;;;13.57;;
7669;SDS011;3877;42.562;27.636;2023-04-19T03:00:08;23.97;;;13.80;;
7669;SDS011;3877;42.562;27.636;2023-04-19T03:02:35;20.93;;;14.30;;
7669;SDS011;3877;42.562;27.636;2023-04-19T03:05:03;19.50;;;13.80;;
7669;SDS011;3877;42.562;27.636;2023-04-19T03:07:32;23.73;;;14.83;;
7669;SDS011;3877;42.562;27.636;2023-04-19T03:09:58;21.53;;;14.97;;
7669;SDS011;3877;42.562;27.636;2023-04-19T03:12:25;27.03;;;19.50;;
7669;SDS011;3877;42.562;27.636;2023-04-19T03:14:52;27.10;;;18.33;;
7669;SDS011;3877;42.562;27.636;2023-04-19T03:17:19;23.67;;;15.40;;
7669;SDS011;3877;42.562;27.636;2023-04-19T03:19:46;22.07;;;14.43;;
7669;SDS011;3877;42.562;27.636;2023-04-19T03:22:13;23.90;;;14.87;;
7669;SDS011;3877;42.562;27.636;2023-04-19T03:24:41;19.83;;;13.03;;
7669;SDS011;3877;42.562;27.636;2023-04-19T03:27:08;20.97;;;13.70;;
7669;SDS011;3877;42.562;27.636;2023-04-19T03:29:35;20.13;;;13.40;;
7669;SDS011;3877;42.562;27.636;2023-04-19T03:32:01;20.60;;;13.47;;
7669;SDS011;3877;42.562;27.636;2023-04-19T03:34:28;19.70;;;13.27;;
7669;SDS011;3877;42.562;27.636;2023-04-19T03:36:55;17.73;;;12.70;;
7669;SDS011;3877;42.562;27.636;2023-04-19T03:39:22;19.00;;;14.73;;
7669;SDS011;3877;42.562;27.636;2023-04-19T03:41:50;18.13;;;13.93;;
7669;SDS011;3877;42.562;27.636;2023-04-19T03:44:17;21.27;;;14.50;;
7669;SDS011;3877;42.562;27.636;2023-04-19T03:46:44;21.97;;;14.27;;
7669;SDS011;3877;42.562;27.636;2023-04-19T03:49:12;23.10;;;14.37;;
7669;SDS011;3877;42.562;27.636;2023-04-19T03:51:40;20.73;;;14.17;;
7669;SDS011;3877;42.562;27.636;2023-04-19T03:54:07;20.80;;;14.73;;
7669;SDS011;3877;42.562;27.636;2023-04-19T03:56:34;19.30;;;14.50;;
7669;SDS011;3877;42.562;27.636;2023-04-19T03:59:02;20.93;;;14.60;;
7669;SDS011;3877;42.562;27.636;2023-04-19T04:01:29;19.70;;;14.30;;
7669;SDS011;3877;42.562;27.636;2023-04-19T04:03:57;21.80;;;15.20;;
7669;SDS011;3877;42.562;27.636;2023-04-19T04:06:24;22.97;;;13.87;;
7669;SDS011;3877;42.562;27.636;2023-04-19T04:08:51;17.93;;;14.17;;
7669;SDS011;3877;42.562;27.636;2023-04-19T04:11:17;17.97;;;14.37;;
7669;SDS011;3877;42.562;27.636;2023-04-19T04:13:44;24.03;;;14.53;;
7669;SDS011;3877;42.562;27.636;2023-04-19T04:16:12;20.70;;;14.03;;
7669;SDS011;3877;42.562;27.636;2023-04-19T04:18:39;20.57;;;14.43;;
7669;SDS011;3877;42.562;27.636;2023-04-19T04:21:06;18.13;;;14.43;;
7669;SDS011;3877;42.562;27.636;2023-04-19T04:23:33;22.17;;;15.17;;
7669;SDS011;3877;42.562;27.636;2023-04-19T04:26:00;21.03;;;14.10;;
7669;SDS011;3877;42.562;27.636;2023-04-19T04:28:29;21.23;;;14.47;;
7669;SDS011;3877;42.562;27.636;2023-04-19T04:30:56;24.37;;;15.53;;
7669;SDS011;3877;42.562;27.636;2023-04-19T04:33:24;24.53;;;13.97;;
7669;SDS011;3877;42.562;27.636;2023-04-19T04:35:52;20.33;;;14.17;;
7669;SDS011;3877;42.562;27.636;2023-04-19T04:38:19;21.20;;;15.93;;
7669;SDS011;3877;42.562;27.636;2023-04-19T04:40:48;26.10;;;15.37;;
7669;SDS011;3877;42.562;27.636;2023-04-19T04:43:15;25.60;;;17.77;;
7669;SDS011;3877;42.562;27.636;2023-04-19T04:45:42;26.77;;;18.57;;
7669;SDS011;3877;42.562;27.636;2023-04-19T04:48:09;25.23;;;19.33;;
7669;SDS011;3877;42.562;27.636;2023-04-19T04:50:38;29.50;;;21.33;;
7669;SDS011;3877;42.562;27.636;2023-04-19T04:53:04;29.47;;;19.70;;
7669;SDS011;3877;42.562;27.636;2023-04-19T04:55:31;21.47;;;16.83;;
7669;SDS011;3877;42.562;27.636;2023-04-19T04:57:58;20.53;;;15.70;;
7669;SDS011;3877;42.562;27.636;2023-04-19T05:00:25;17.03;;;13.37;;
7669;SDS011;3877;42.562;27.636;2023-04-19T05:02:51;22.33;;;14.27;;
7669;SDS011;3877;42.562;27.636;2023-04-19T05:05:18;17.90;;;12.83;;
7669;SDS011;3877;42.562;27.636;2023-04-19T05:07:46;17.33;;;13.37;;
7669;SDS011;3877;42.562;27.636;2023-04-19T05:10:13;16.83;;;12.60;;
7669;SDS011;3877;42.562;27.636;2023-04-19T05:12:40;17.20;;;13.30;;
7669;SDS011;3877;42.562;27.636;2023-04-19T05:15:07;15.87;;;12.57;;
7669;SDS011;3877;42.562;27.636;2023-04-19T05:17:36;16.47;;;12.03;;
7669;SDS011;3877;42.562;27.636;2023-04-19T05:20:03;19.03;;;13.17;;
7669;SDS011;3877;42.562;27.636;2023-04-19T05:22:30;17.67;;;13.17;;
7669;SDS011;3877;42.562;27.636;2023-04-19T05:24:58;17.63;;;12.20;;
7669;SDS011;3877;42.562;27.636;2023-04-19T05:27:25;14.80;;;10.43;;
7669;SDS011;3877;42.562;27.636;2023-04-19T05:29:52;14.93;;;11.67;;
7669;SDS011;3877;42.562;27.636;2023-04-19T05:32:19;23.87;;;20.43;;
7669;SDS011;3877;42.562;27.636;2023-04-19T05:34:45;13.50;;;10.70;;
7669;SDS011;3877;42.562;27.636;2023-04-19T05:37:12;15.87;;;11.77;;
7669;SDS011;3877;42.562;27.636;2023-04-19T05:39:39;15.33;;;11.40;;
7669;SDS011;3877;42.562;27.636;2023-04-19T05:42:07;15.20;;;11.80;;
7669;SDS011;3877;42.562;27.636;2023-04-19T05:44:34;16.30;;;12.73;;
7669;SDS011;3877;42.562;27.636;2023-04-19T05:47:01;16.23;;;13.60;;
7669;SDS011;3877;42.562;27.636;2023-04-19T05:49:28;28.37;;;13.53;;
7669;SDS011;3877;42.562;27.636;2023-04-19T05:51:54;17.60;;;13.93;;
7669;SDS011;3877;42.562;27.636;2023-04-19T05:54:21;15.17;;;13.03;;
7669;SDS011;3877;42.562;27.636;2023-04-19T05:56:48;15.37;;;12.70;;
7669;SDS011;3877;42.562;27.636;2023-04-19T05:59:34;15.40;;;12.98;;
7669;SDS011;3877;42.562;27.636;2023-04-19T06:02:01;17.97;;;12.23;;
7669;SDS011;3877;42.562;27.636;2023-04-19T06:04:29;14.73;;;11.50;;
7669;SDS011;3877;42.562;27.636;2023-04-19T06:06:55;14.63;;;10.73;;
7669;SDS011;3877;42.562;27.636;2023-04-19T06:09:22;14.80;;;11.53;;
7669;SDS011;3877;42.562;27.636;2023-04-19T06:11:49;15.33;;;11.70;;
7669;SDS011;3877;42.562;27.636;2023-04-19T06:14:18;15.17;;;10.73;;
7669;SDS011;3877;42.562;27.636;2023-04-19T06:16:47;13.60;;;10.93;;
7669;SDS011;3877;42.562;27.636;2023-04-19T06:19:13;17.47;;;11.27;;
7669;SDS011;3877;42.562;27.636;2023-04-19T06:21:40;18.30;;;10.60;;
7669;SDS011;3877;42.562;27.636;2023-04-19T06:24:07;14.80;;;10.50;;
7669;SDS011;3877;42.562;27.636;2023-04-19T06:26:34;14.20;;;10.47;;
7669;SDS011;3877;42.562;27.636;2023-04-19T06:29:01;15.83;;;10.10;;
7669;SDS011;3877;42.562;27.636;2023-04-19T06:31:28;14.67;;;10.13;;
7669;SDS011;3877;42.562;27.636;2023-04-19T06:33:56;12.80;;;9.90;;
7669;SDS011;3877;42.562;27.636;2023-04-19T06:36:23;13.63;;;10.23;;
7669;SDS011;3877;42.562;27.636;2023-04-19T06:38:50;13.83;;;10.60;;
7669;SDS011;3877;42.562;27.636;2023-04-19T06:41:16;22.13;;;11.40;;
7669;SDS011;3877;42.562;27.636;2023-04-19T06:43:43;14.20;;;11.77;;
7669;SDS011;3877;42.562;27.636;2023-04-19T06:46:10;22.83;;;14.30;;
7669;SDS011;3877;42.562;27.636;2023-04-19T06:48:38;18.43;;;14.07;;
7669;SDS011;3877;42.562;27.636;2023-04-19T06:51:06;14.80;;;12.30;;
7669;SDS011;3877;42.562;27.636;2023-04-19T06:53:33;25.17;;;15.10;;
7669;SDS011;3877;42.562;27.636;2023-04-19T06:56:01;17.53;;;13.20;;
7669;SDS011;3877;42.562;27.636;2023-04-19T06:58:28;16.30;;;11.50;;
7669;SDS011;3877;42.562;27.636;2023-04-19T07:00:56;14.03;;;10.60;;
7669;SDS011;3877;42.562;27.636;2023-04-19T07:03:23;14.87;;;11.27;;
7669;SDS011;3877;42.562;27.636;2023-04-19T07:05:49;13.80;;;11.93;;
7669;SDS011;3877;42.562;27.636;2023-04-19T07:08:18;18.25;;;11.88;;
7669;SDS011;3877;42.562;27.636;2023-04-19T07:10:45;17.37;;;12.20;;
7669;SDS011;3877;42.562;27.636;2023-04-19T07:13:12;20.80;;;13.33;;
7669;SDS011;3877;42.562;27.636;2023-04-19T07:15:38;17.00;;;13.97;;
7669;SDS011;3877;42.562;27.636;2023-04-19T07:18:05;20.40;;;15.33;;
7669;SDS011;3877;42.562;27.636;2023-04-19T07:20:34;18.17;;;14.03;;
7669;SDS011;3877;42.562;27.636;2023-04-19T07:23:01;15.60;;;12.20;;
7669;SDS011;3877;42.562;27.636;2023-04-19T07:25:29;24.17;;;18.10;;
7669;SDS011;3877;42.562;27.636;2023-04-19T07:27:56;19.90;;;13.33;;
7669;SDS011;3877;42.562;27.636;2023-04-19T07:30:40;14.73;;;12.50;;
7669;SDS011;3877;42.562;27.636;2023-04-19T07:33:10;16.50;;;12.60;;
7669;SDS011;3877;42.562;27.636;2023-04-19T07:35:37;16.73;;;13.20;;
7669;SDS011;3877;42.562;27.636;2023-04-19T07:38:04;18.00;;;14.00;;
7669;SDS011;3877;42.562;27.636;2023-04-19T07:40:33;19.87;;;15.17;;
7669;SDS011;3877;42.562;27.636;2023-04-19T07:42:59;19.60;;;14.97;;
7669;SDS011;3877;42.562;27.636;2023-04-19T07:45:26;19.60;;;15.67;;
7669;SDS011;3877;42.562;27.636;2023-04-19T07:47:55;21.83;;;16.87;;
7669;SDS011;3877;42.562;27.636;2023-04-19T07:50:23;18.80;;;14.93;;
7669;SDS011;3877;42.562;27.636;2023-04-19T07:52:50;21.43;;;15.20;;
7669;SDS011;3877;42.562;27.636;2023-04-19T07:55:17;19.77;;;15.90;;
7669;SDS011;3877;42.562;27.636;2023-04-19T07:57:45;24.00;;;17.07;;
7669;SDS011;3877;42.562;27.636;2023-04-19T08:00:12;23.53;;;17.20;;
7669;SDS011;3877;42.562;27.636;2023-04-19T08:02:41;22.17;;;16.87;;
7669;SDS011;3877;42.562;27.636;2023-04-19T08:05:08;21.10;;;16.67;;
7669;SDS011;3877;42.562;27.636;2023-04-19T08:07:35;23.50;;;16.23;;
7669;SDS011;3877;42.562;27.636;2023-04-19T08:10:02;21.73;;;15.80;;
7669;SDS011;3877;42.562;27.636;2023-04-19T08:12:29;24.07;;;17.27;;
7669;SDS011;3877;42.562;27.636;2023-04-19T08:14:57;20.53;;;13.73;;
7669;SDS011;3877;42.562;27.636;2023-04-19T08:17:25;13.13;;;10.23;;
7669;SDS011;3877;42.562;27.636;2023-04-19T08:19:52;11.77;;;9.30;;
7669;SDS011;3877;42.562;27.636;2023-04-19T08:22:18;13.50;;;9.10;;
7669;SDS011;3877;42.562;27.636;2023-04-19T08:24:47;15.80;;;9.43;;
7669;SDS011;3877;42.562;27.636;2023-04-19T08:27:15;15.53;;;8.53;;
7669;SDS011;3877;42.562;27.636;2023-04-19T08:29:42;9.47;;;7.83;;
7669;SDS011;3877;42.562;27.636;2023-04-19T08:32:10;10.30;;;5.83;;
7669;SDS011;3877;42.562;27.636;2023-04-19T08:34:38;9.07;;;5.77;;
7669;SDS011;3877;42.562;27.636;2023-04-19T08:37:05;6.77;;;4.47;;
7669;SDS011;3877;42.562;27.636;2023-04-19T08:39:32;3.03;;;2.10;;
7669;SDS011;3877;42.562;27.636;2023-04-19T08:42:01;2.57;;;1.53;;
7669;SDS011;3877;42.562;27.636;2023-04-19T08:44:29;3.63;;;1.60;;
7669;SDS011;3877;42.562;27.636;2023-04-19T08:46:56;2.40;;;1.53;;
7669;SDS011;3877;42.562;27.636;2023-04-19T08:49:25;3.27;;;1.60;;
7669;SDS011;3877;42.562;27.636;2023-04-19T08:51:53;6.03;;;1.70;;
7669;SDS011;3877;42.562;27.636;2023-04-19T08:54:20;4.30;;;1.40;;
7669;SDS011;3877;42.562;27.636;2023-04-19T08:56:47;1.87;;;1.47;;
7669;SDS011;3877;42.562;27.636;2023-04-19T08:59:14;1.83;;;1.50;;
7669;SDS011;3877;42.562;27.636;2023-04-19T09:01:41;1.83;;;1.50;;
7669;SDS011;3877;42.562;27.636;2023-04-19T09:04:07;1.40;;;1.30;;
7669;SDS011;3877;42.562;27.636;2023-04-19T09:06:36;1.50;;;1.40;;
7669;SDS011;3877;42.562;27.636;2023-04-19T09:09:13;2.10;;;1.60;;
7669;SDS011;3877;42.562;27.636;2023-04-19T09:11:40;2.73;;;1.60;;
7669;SDS011;3877;42.562;27.636;2023-04-19T09:14:07;2.50;;;1.50;;
7669;SDS011;3877;42.562;27.636;2023-04-19T09:16:35;1.70;;;1.60;;
7669;SDS011;3877;42.562;27.636;2023-04-19T09:19:04;3.77;;;1.60;;
7669;SDS011;3877;42.562;27.636;2023-04-19T09:21:31;1.70;;;1.60;;
7669;SDS011;3877;42.562;27.636;2023-04-19T09:24:00;3.23;;;1.60;;
7669;SDS011;3877;42.562;27.636;2023-04-19T09:26:27;2.43;;;1.67;;
7669;SDS011;3877;42.562;27.636;2023-04-19T09:28:55;1.80;;;1.70;;
7669;SDS011;3877;42.562;27.636;2023-04-19T09:31:22;2.87;;;1.60;;
7669;SDS011;3877;42.562;27.636;2023-04-19T09:33:49;1.60;;;1.50;;
7669;SDS011;3877;42.562;27.636;2023-04-19T09:36:25;1.60;;;1.50;;
7669;SDS011;3877;42.562;27.636;2023-04-19T09:38:52;1.93;;;1.70;;
7669;SDS011;3877;42.562;27.636;2023-04-19T09:41:20;2.27;;;1.90;;
7669;SDS011;3877;42.562;27.636;2023-04-19T09:43:47;1.80;;;1.70;;
7669;SDS011;3877;42.562;27.636;2023-04-19T09:49:17;2.13;;;1.90;;
7669;SDS011;3877;42.562;27.636;2023-04-19T09:51:45;3.20;;;2.20;;
7669;SDS011;3877;42.562;27.636;2023-04-19T09:54:13;3.90;;;2.50;;
7669;SDS011;3877;42.562;27.636;2023-04-19T09:56:41;2.60;;;2.07;;
7669;SDS011;3877;42.562;27.636;2023-04-19T09:59:08;2.47;;;2.00;;
7669;SDS011;3877;42.562;27.636;2023-04-19T10:01:37;7.10;;;5.63;;
7669;SDS011;3877;42.562;27.636;2023-04-19T10:04:05;4.73;;;2.50;;
7669;SDS011;3877;42.562;27.636;2023-04-19T10:06:33;5.43;;;2.30;;
7669;SDS011;3877;42.562;27.636;2023-04-19T10:09:01;2.40;;;2.20;;
7669;SDS011;3877;42.562;27.636;2023-04-19T10:11:29;4.93;;;2.63;;
7669;SDS011;3877;42.562;27.636;2023-04-19T10:14:02;3.40;;;2.60;;
7669;SDS011;3877;42.562;27.636;2023-04-19T10:16:29;3.37;;;2.90;;
7669;SDS011;3877;42.562;27.636;2023-04-19T10:18:57;3.43;;;2.97;;
7669;SDS011;3877;42.562;27.636;2023-04-19T10:21:25;4.30;;;3.10;;
7669;SDS011;3877;42.562;27.636;2023-04-19T10:23:52;3.73;;;3.30;;
7669;SDS011;3877;42.562;27.636;2023-04-19T10:26:19;7.17;;;3.40;;
7669;SDS011;3877;42.562;27.636;2023-04-19T10:28:46;7.70;;;3.40;;
7669;SDS011;3877;42.562;27.636;2023-04-19T10:31:15;3.77;;;3.40;;
7669;SDS011;3877;42.562;27.636;2023-04-19T10:33:46;3.90;;;3.60;;
7669;SDS011;3877;42.562;27.636;2023-04-19T10:36:13;6.87;;;3.93;;
7669;SDS011;3877;42.562;27.636;2023-04-19T10:38:42;7.57;;;4.00;;
7669;SDS011;3877;42.562;27.636;2023-04-19T10:41:12;6.37;;;4.10;;
7669;SDS011;3877;42.562;27.636;2023-04-19T10:43:40;10.17;;;4.33;;
7669;SDS011;3877;42.562;27.636;2023-04-19T10:46:07;4.37;;;3.97;;
7669;SDS011;3877;42.562;27.636;2023-04-19T10:48:39;5.10;;;3.77;;
7669;SDS011;3877;42.562;27.636;2023-04-19T10:51:12;4.83;;;4.27;;
7669;SDS011;3877;42.562;27.636;2023-04-19T10:53:47;5.13;;;3.80;;
7669;SDS011;3877;42.562;27.636;2023-04-19T10:56:14;4.73;;;3.77;;
7669;SDS011;3877;42.562;27.636;2023-04-19T11:01:33;9.07;;;4.20;;
7669;SDS011;3877;42.562;27.636;2023-04-19T11:04:02;4.87;;;4.03;;
7669;SDS011;3877;42.562;27.636;2023-04-19T11:06:29;9.37;;;4.30;;
7669;SDS011;3877;42.562;27.636;2023-04-19T11:08:56;5.93;;;4.17;;
7669;SDS011;3877;42.562;27.636;2023-04-19T11:11:23;8.47;;;4.47;;
7669;SDS011;3877;42.562;27.636;2023-04-19T11:13:50;5.00;;;4.23;;
7669;SDS011;3877;42.562;27.636;2023-04-19T11:16:18;7.27;;;4.20;;
7669;SDS011;3877;42.562;27.636;2023-04-19T11:18:45;5.53;;;4.30;;
7669;SDS011;3877;42.562;27.636;2023-04-19T11:21:13;5.73;;;4.20;;
7669;SDS011;3877;42.562;27.636;2023-04-19T11:23:43;4.57;;;3.87;;
7669;SDS011;3877;42.562;27.636;2023-04-19T11:26:12;5.60;;;4.20;;
7669;SDS011;3877;42.562;27.636;2023-04-19T11:28:38;6.13;;;4.13;;
7669;SDS011;3877;42.562;27.636;2023-04-19T11:31:05;6.90;;;3.93;;
7669;SDS011;3877;42.562;27.636;2023-04-19T11:33:32;7.73;;;3.70;;
7669;SDS011;3877;42.562;27.636;2023-04-19T11:35:59;6.17;;;3.30;;
7669;SDS011;3877;42.562;27.636;2023-04-19T11:38:28;4.80;;;3.40;;
7669;SDS011;3877;42.562;27.636;2023-04-19T11:40:58;4.17;;;2.70;;
7669;SDS011;3877;42.562;27.636;2023-04-19T11:43:30;3.40;;;3.10;;
7669;SDS011;3877;42.562;27.636;2023-04-19T11:46:03;4.50;;;2.77;;
7669;SDS011;3877;42.562;27.636;2023-04-19T11:48:30;6.97;;;3.67;;
7669;SDS011;3877;42.562;27.636;2023-04-19T11:50:57;4.43;;;2.63;;
7669;SDS011;3877;42.562;27.636;2023-04-19T11:53:25;6.83;;;3.30;;
7669;SDS011;3877;42.562;27.636;2023-04-19T11:55:54;10.67;;;4.27;;
7669;SDS011;3877;42.562;27.636;2023-04-19T11:58:22;6.50;;;3.43;;
7669;SDS011;3877;42.562;27.636;2023-04-19T12:00:50;8.65;;;4.05;;
7669;SDS011;3877;42.562;27.636;2023-04-19T12:03:19;5.63;;;3.97;;
7669;SDS011;3877;42.562;27.636;2023-04-19T12:05:51;7.50;;;2.87;;
7669;SDS011;3877;42.562;27.636;2023-04-19T12:08:28;10.60;;;4.73;;
7669;SDS011;3877;42.562;27.636;2023-04-19T12:10:56;3.87;;;2.57;;
7669;SDS011;3877;42.562;27.636;2023-04-19T12:13:23;5.93;;;3.00;;
7669;SDS011;3877;42.562;27.636;2023-04-19T12:15:50;2.57;;;2.37;;
7669;SDS011;3877;42.562;27.636;2023-04-19T12:18:17;2.67;;;2.30;;
7669;SDS011;3877;42.562;27.636;2023-04-19T12:20:44;9.60;;;1.90;;
7669;SDS011;3877;42.562;27.636;2023-04-19T12:23:11;2.35;;;2.08;;
7669;SDS011;3877;42.562;27.636;2023-04-19T12:25:40;5.63;;;2.22;;
7669;SDS011;3877;42.562;27.636;2023-04-19T12:28:08;2.10;;;1.70;;
7669;SDS011;3877;42.562;27.636;2023-04-19T12:30:35;2.10;;;1.90;;
7669;SDS011;3877;42.562;27.636;2023-04-19T12:33:02;4.03;;;2.17;;
7669;SDS011;3877;42.562;27.636;2023-04-19T12:35:29;1.92;;;1.80;;
7669;SDS011;3877;42.562;27.636;2023-04-19T12:37:57;1.90;;;1.60;;
7669;SDS011;3877;42.562;27.636;2023-04-19T12:40:24;6.97;;;1.80;;
7669;SDS011;3877;42.562;27.636;2023-04-19T12:42:52;3.90;;;1.52;;
7669;SDS011;3877;42.562;27.636;2023-04-19T12:45:20;2.45;;;2.25;;
7669;SDS011;3877;42.562;27.636;2023-04-19T12:47:47;4.60;;;3.70;;
7669;SDS011;3877;42.562;27.636;2023-04-19T12:50:14;13.32;;;7.10;;
7669;SDS011;3877;42.562;27.636;2023-04-19T12:52:41;9.73;;;3.13;;
7669;SDS011;3877;42.562;27.636;2023-04-19T12:55:08;6.50;;;3.30;;
7669;SDS011;3877;42.562;27.636;2023-04-19T12:57:35;7.68;;;3.40;;
7669;SDS011;3877;42.562;27.636;2023-04-19T13:00:02;14.48;;;4.85;;
7669;SDS011;3877;42.562;27.636;2023-04-19T13:02:31;11.55;;;3.30;;
7669;SDS011;3877;42.562;27.636;2023-04-19T13:04:59;21.77;;;8.95;;
7669;SDS011;3877;42.562;27.636;2023-04-19T13:07:26;8.35;;;6.07;;
7669;SDS011;3877;42.562;27.636;2023-04-19T13:09:53;143.95;;;85.63;;
7669;SDS011;3877;42.562;27.636;2023-04-19T13:12:19;20.90;;;7.67;;
7669;SDS011;3877;42.562;27.636;2023-04-19T13:14:46;13.23;;;5.80;;
7669;SDS011;3877;42.562;27.636;2023-04-19T13:17:15;7.47;;;3.97;;
7669;SDS011;3877;42.562;27.636;2023-04-19T13:19:44;5.22;;;2.20;;
7669;SDS011;3877;42.562;27.636;2023-04-19T13:22:11;4.60;;;2.08;;
7669;SDS011;3877;42.562;27.636;2023-04-19T13:24:38;2.27;;;2.00;;
7669;SDS011;3877;42.562;27.636;2023-04-19T13:27:05;6.95;;;2.45;;
7669;SDS011;3877;42.562;27.636;2023-04-19T13:29:32;4.83;;;2.10;;
7669;SDS011;3877;42.562;27.636;2023-04-19T13:31:58;5.43;;;2.60;;
7669;SDS011;3877;42.562;27.636;2023-04-19T13:34:25;3.20;;;2.30;;
7669;SDS011;3877;42.562;27.636;2023-04-19T13:36:53;7.00;;;2.20;;
7669;SDS011;3877;42.562;27.636;2023-04-19T13:39:21;6.03;;;2.25;;
7669;SDS011;3877;42.562;27.636;2023-04-19T13:41:48;7.43;;;2.50;;
7669;SDS011;3877;42.562;27.636;2023-04-19T13:44:15;5.27;;;2.30;;
7669;SDS011;3877;42.562;27.636;2023-04-19T13:46:42;4.23;;;2.50;;
7669;SDS011;3877;42.562;27.636;2023-04-19T13:49:09;4.90;;;2.67;;
7669;SDS011;3877;42.562;27.636;2023-04-19T13:51:35;9.07;;;2.47;;
7669;SDS011;3877;42.562;27.636;2023-04-19T13:54:04;6.23;;;2.23;;
7669;SDS011;3877;42.562;27.636;2023-04-19T13:56:31;3.33;;;2.65;;
7669;SDS011;3877;42.562;27.636;2023-04-19T13:58:58;6.80;;;2.83;;
7669;SDS011;3877;42.562;27.636;2023-04-19T14:01:24;5.47;;;2.80;;
7669;SDS011;3877;42.562;27.636;2023-04-19T14:03:51;4.90;;;2.90;;
7669;SDS011;3877;42.562;27.636;2023-04-19T14:06:18;4.30;;;2.40;;
7669;SDS011;3877;42.562;27.636;2023-04-19T14:08:45;8.10;;;2.97;;
7669;SDS011;3877;42.562;27.636;2023-04-19T14:11:13;3.70;;;2.50;;
7669;SDS011;3877;42.562;27.636;2023-04-19T14:13:40;5.67;;;2.90;;
7669;SDS011;3877;42.562;27.636;2023-04-19T14:16:08;6.30;;;2.90;;
7669;SDS011;3877;42.562;27.636;2023-04-19T14:18:36;2.87;;;2.57;;
7669;SDS011;3877;42.562;27.636;2023-04-19T14:21:03;4.10;;;2.73;;
7669;SDS011;3877;42.562;27.636;2023-04-19T14:23:29;5.37;;;2.93;;
7669;SDS011;3877;42.562;27.636;2023-04-19T14:25:56;9.20;;;3.00;;
7669;SDS011;3877;42.562;27.636;2023-04-19T14:28:25;10.93;;;3.20;;
7669;SDS011;3877;42.562;27.636;2023-04-19T14:30:51;5.20;;;3.00;;
7669;SDS011;3877;42.562;27.636;2023-04-19T14:33:18;5.53;;;2.90;;
7669;SDS011;3877;42.562;27.636;2023-04-19T14:35:45;5.30;;;3.10;;
7669;SDS011;3877;42.562;27.636;2023-04-19T14:38:12;7.10;;;2.80;;
7669;SDS011;3877;42.562;27.636;2023-04-19T14:40:39;5.40;;;3.00;;
7669;SDS011;3877;42.562;27.636;2023-04-19T14:43:06;6.90;;;3.20;;
7669;SDS011;3877;42.562;27.636;2023-04-19T14:45:34;4.53;;;3.13;;
7669;SDS011;3877;42.562;27.636;2023-04-19T14:48:01;5.13;;;3.20;;
7669;SDS011;3877;42.562;27.636;2023-04-19T14:50:28;8.60;;;3.73;;
7669;SDS011;3877;42.562;27.636;2023-04-19T14:52:55;6.03;;;3.60;;